sensor_id;sensor_type;location;lat;lon;timestamp;temperature;humidity
18281;DHT22;9266;51.132;17.062;2024-01-30T00:01:23;1.70;99.90
18281;DHT22;9266;51.132;17.062;2024-01-30T00:03:50;1.70;99.90
18281;DHT22;9266;51.132;17.062;2024-01-30T00:06:18;1.70;99.90
18281;DHT22;9266;51.132;17.062;2024-01-30T00:08:47;1.60;99.90
18281;DHT22;9266;51.132;17.062;2024-01-30T00:11:16;1.70;99.90
18281;DHT22;9266;51.132;17.062;2024-01-30T00:13:43;1.80;90.50
18281;DHT22;9266;51.132;17.062;2024-01-30T00:16:20;1.80;1.00
18281;DHT22;9266;51.132;17.062;2024-01-30T00:18:47;1.80;14.90
18281;DHT22;9266;51.132;17.062;2024-01-30T00:21:13;1.70;1.00
18281;DHT22;9266;51.132;17.062;2024-01-30T00:23:40;1.70;19.60
18281;DHT22;9266;51.132;17.062;2024-01-30T00:26:08;1.50;29.30
18281;DHT22;9266;51.132;17.062;2024-01-30T00:28:35;1.40;99.90
18281;DHT22;9266;51.132;17.062;2024-01-30T00:31:02;1.10;99.90
18281;DHT22;9266;51.132;17.062;2024-01-30T00:33:30;1.00;1.00
18281;DHT22;9266;51.132;17.062;2024-01-30T00:35:57;1.00;1.00
18281;DHT22;9266;51.132;17.062;2024-01-30T00:38:24;1.00;99.90
18281;DHT22;9266;51.132;17.062;2024-01-30T00:40:50;1.10;99.90
18281;DHT22;9266;51.132;17.062;2024-01-30T00:43:19;1.10;99.90
18281;DHT22;9266;51.132;17.062;2024-01-30T00:45:46;1.00;1.00
18281;DHT22;9266;51.132;17.062;2024-01-30T00:48:13;1.00;1.00
18281;DHT22;9266;51.132;17.062;2024-01-30T00:50:40;1.10;1.00
18281;DHT22;9266;51.132;17.062;2024-01-30T00:53:07;0.90;1.00
18281;DHT22;9266;51.132;17.062;2024-01-30T00:55:34;1.00;1.00
18281;DHT22;9266;51.132;17.062;2024-01-30T00:58:01;0.80;1.00
18281;DHT22;9266;51.132;17.062;2024-01-30T01:00:30;0.90;1.00
18281;DHT22;9266;51.132;17.062;2024-01-30T01:02:57;0.90;1.00
18281;DHT22;9266;51.132;17.062;2024-01-30T01:05:25;1.00;1.00
18281;DHT22;9266;51.132;17.062;2024-01-30T01:07:52;0.90;1.00
18281;DHT22;9266;51.132;17.062;2024-01-30T01:10:19;0.80;1.00
18281;DHT22;9266;51.132;17.062;2024-01-30T01:12:47;0.70;70.60
18281;DHT22;9266;51.132;17.062;2024-01-30T01:15:15;0.60;99.90
18281;DHT22;9266;51.132;17.062;2024-01-30T01:17:43;0.60;1.00
18281;DHT22;9266;51.132;17.062;2024-01-30T01:20:10;0.50;1.00
18281;DHT22;9266;51.132;17.062;2024-01-30T01:22:38;0.60;1.00
18281;DHT22;9266;51.132;17.062;2024-01-30T01:25:06;0.50;1.00
18281;DHT22;9266;51.132;17.062;2024-01-30T01:27:33;0.60;99.90
18281;DHT22;9266;51.132;17.062;2024-01-30T01:30:07;0.60;99.90
18281;DHT22;9266;51.132;17.062;2024-01-30T01:32:35;0.50;1.80
18281;DHT22;9266;51.132;17.062;2024-01-30T01:35:04;0.60;99.90
18281;DHT22;9266;51.132;17.062;2024-01-30T01:37:32;0.60;1.00
18281;DHT22;9266;51.132;17.062;2024-01-30T01:39:59;0.70;1.00
18281;DHT22;9266;51.132;17.062;2024-01-30T01:42:26;0.70;1.00
18281;DHT22;9266;51.132;17.062;2024-01-30T01:44:53;0.70;1.00
18281;DHT22;9266;51.132;17.062;2024-01-30T01:47:20;0.70;1.00
18281;DHT22;9266;51.132;17.062;2024-01-30T01:49:47;0.70;99.90
18281;DHT22;9266;51.132;17.062;2024-01-30T01:52:16;0.50;1.00
18281;DHT22;9266;51.132;17.062;2024-01-30T01:54:43;0.40;12.40
18281;DHT22;9266;51.132;17.062;2024-01-30T01:57:10;0.40;99.90
18281;DHT22;9266;51.132;17.062;2024-01-30T01:59:38;0.40;1.00
18281;DHT22;9266;51.132;17.062;2024-01-30T02:02:06;0.40;16.50
18281;DHT22;9266;51.132;17.062;2024-01-30T02:04:36;0.50;99.90
18281;DHT22;9266;51.132;17.062;2024-01-30T02:07:03;0.50;99.90
18281;DHT22;9266;51.132;17.062;2024-01-30T02:09:32;0.60;56.20
18281;DHT22;9266;51.132;17.062;2024-01-30T02:11:59;0.70;1.00
18281;DHT22;9266;51.132;17.062;2024-01-30T02:14:26;0.70;99.90
18281;DHT22;9266;51.132;17.062;2024-01-30T02:16:53;0.80;99.90
18281;DHT22;9266;51.132;17.062;2024-01-30T02:19:20;0.90;1.00
18281;DHT22;9266;51.132;17.062;2024-01-30T02:21:48;1.00;1.00
18281;DHT22;9266;51.132;17.062;2024-01-30T02:24:15;1.00;1.20
18281;DHT22;9266;51.132;17.062;2024-01-30T02:26:42;0.90;1.00
18281;DHT22;9266;51.132;17.062;2024-01-30T02:29:10;1.00;20.80
18281;DHT22;9266;51.132;17.062;2024-01-30T02:31:37;1.00;1.00
18281;DHT22;9266;51.132;17.062;2024-01-30T02:34:04;1.00;1.00
18281;DHT22;9266;51.132;17.062;2024-01-30T02:36:31;0.90;1.00
18281;DHT22;9266;51.132;17.062;2024-01-30T02:38:59;1.10;99.90
18281;DHT22;9266;51.132;17.062;2024-01-30T02:41:26;0.80;99.90
18281;DHT22;9266;51.132;17.062;2024-01-30T02:43:53;1.00;1.00
18281;DHT22;9266;51.132;17.062;2024-01-30T02:46:20;0.90;99.90
18281;DHT22;9266;51.132;17.062;2024-01-30T02:48:47;0.90;99.90
18281;DHT22;9266;51.132;17.062;2024-01-30T02:51:14;1.00;99.90
18281;DHT22;9266;51.132;17.062;2024-01-30T02:53:40;1.00;99.90
18281;DHT22;9266;51.132;17.062;2024-01-30T02:56:09;1.00;26.80
18281;DHT22;9266;51.132;17.062;2024-01-30T02:58:36;0.90;6.60
18281;DHT22;9266;51.132;17.062;2024-01-30T03:01:03;1.30;99.90
18281;DHT22;9266;51.132;17.062;2024-01-30T03:03:30;0.80;99.90
18281;DHT22;9266;51.132;17.062;2024-01-30T03:05:57;0.70;99.90
18281;DHT22;9266;51.132;17.062;2024-01-30T03:08:24;0.60;1.00
18281;DHT22;9266;51.132;17.062;2024-01-30T03:10:50;0.60;99.90
18281;DHT22;9266;51.132;17.062;2024-01-30T03:13:19;0.60;99.90
18281;DHT22;9266;51.132;17.062;2024-01-30T03:15:46;0.50;99.90
18281;DHT22;9266;51.132;17.062;2024-01-30T03:18:13;0.50;1.00
18281;DHT22;9266;51.132;17.062;2024-01-30T03:20:39;0.50;1.00
18281;DHT22;9266;51.132;17.062;2024-01-30T03:23:07;0.50;1.00
18281;DHT22;9266;51.132;17.062;2024-01-30T03:25:34;0.60;1.00
18281;DHT22;9266;51.132;17.062;2024-01-30T03:28:00;0.60;1.00
18281;DHT22;9266;51.132;17.062;2024-01-30T03:30:29;0.60;99.90
18281;DHT22;9266;51.132;17.062;2024-01-30T03:32:56;0.70;1.00
18281;DHT22;9266;51.132;17.062;2024-01-30T03:35:23;0.70;99.90
18281;DHT22;9266;51.132;17.062;2024-01-30T03:37:49;0.60;37.60
18281;DHT22;9266;51.132;17.062;2024-01-30T03:40:16;0.70;99.90
18281;DHT22;9266;51.132;17.062;2024-01-30T03:42:43;0.60;99.90
18281;DHT22;9266;51.132;17.062;2024-01-30T03:45:11;0.60;99.90
18281;DHT22;9266;51.132;17.062;2024-01-30T03:47:39;0.50;1.00
18281;DHT22;9266;51.132;17.062;2024-01-30T03:50:06;0.40;1.00
18281;DHT22;9266;51.132;17.062;2024-01-30T03:52:33;0.30;1.00
18281;DHT22;9266;51.132;17.062;2024-01-30T03:55:00;0.40;1.00
18281;DHT22;9266;51.132;17.062;2024-01-30T03:57:27;0.30;1.00
18281;DHT22;9266;51.132;17.062;2024-01-30T03:59:54;0.30;1.00
18281;DHT22;9266;51.132;17.062;2024-01-30T04:02:21;0.40;1.00
18281;DHT22;9266;51.132;17.062;2024-01-30T04:04:50;0.30;1.00
18281;DHT22;9266;51.132;17.062;2024-01-30T04:07:16;0.10;1.00
18281;DHT22;9266;51.132;17.062;2024-01-30T04:09:43;0.20;1.00
18281;DHT22;9266;51.132;17.062;2024-01-30T04:12:10;0.30;1.00
18281;DHT22;9266;51.132;17.062;2024-01-30T04:14:38;0.20;1.00
18281;DHT22;9266;51.132;17.062;2024-01-30T04:17:05;0.20;1.00
18281;DHT22;9266;51.132;17.062;2024-01-30T04:19:33;0.20;1.00
18281;DHT22;9266;51.132;17.062;2024-01-30T04:22:05;0.20;1.00
18281;DHT22;9266;51.132;17.062;2024-01-30T04:24:32;0.10;1.00
18281;DHT22;9266;51.132;17.062;2024-01-30T04:26:58;-0.10;99.90
18281;DHT22;9266;51.132;17.062;2024-01-30T04:29:25;-0.20;1.00
18281;DHT22;9266;51.132;17.062;2024-01-30T04:31:52;-0.20;6.50
18281;DHT22;9266;51.132;17.062;2024-01-30T04:34:19;-1.50;1.00
18281;DHT22;9266;51.132;17.062;2024-01-30T04:36:46;-0.20;23.00
18281;DHT22;9266;51.132;17.062;2024-01-30T04:39:14;-0.30;99.90
18281;DHT22;9266;51.132;17.062;2024-01-30T04:41:41;-0.20;1.00
18281;DHT22;9266;51.132;17.062;2024-01-30T04:44:08;-0.10;1.00
18281;DHT22;9266;51.132;17.062;2024-01-30T04:46:35;0.00;1.00
18281;DHT22;9266;51.132;17.062;2024-01-30T04:49:02;0.10;1.00
18281;DHT22;9266;51.132;17.062;2024-01-30T04:51:29;0.20;99.90
18281;DHT22;9266;51.132;17.062;2024-01-30T04:53:56;0.30;1.00
18281;DHT22;9266;51.132;17.062;2024-01-30T04:56:24;-0.20;99.90
18281;DHT22;9266;51.132;17.062;2024-01-30T04:58:51;0.20;99.90
18281;DHT22;9266;51.132;17.062;2024-01-30T05:01:18;0.20;99.90
18281;DHT22;9266;51.132;17.062;2024-01-30T05:03:45;0.10;99.90
18281;DHT22;9266;51.132;17.062;2024-01-30T05:06:12;0.10;99.90
18281;DHT22;9266;51.132;17.062;2024-01-30T05:08:39;0.10;1.00
18281;DHT22;9266;51.132;17.062;2024-01-30T05:11:06;0.50;1.00
18281;DHT22;9266;51.132;17.062;2024-01-30T05:13:34;0.10;55.60
18281;DHT22;9266;51.132;17.062;2024-01-30T05:16:02;0.10;1.00
18281;DHT22;9266;51.132;17.062;2024-01-30T05:18:29;0.20;1.00
18281;DHT22;9266;51.132;17.062;2024-01-30T05:20:56;0.10;1.00
18281;DHT22;9266;51.132;17.062;2024-01-30T05:23:24;0.00;1.00
18281;DHT22;9266;51.132;17.062;2024-01-30T05:25:50;0.10;1.00
18281;DHT22;9266;51.132;17.062;2024-01-30T05:28:17;0.10;1.00
18281;DHT22;9266;51.132;17.062;2024-01-30T05:30:46;0.10;1.00
18281;DHT22;9266;51.132;17.062;2024-01-30T05:33:13;0.10;1.00
18281;DHT22;9266;51.132;17.062;2024-01-30T05:35:40;0.10;1.00
18281;DHT22;9266;51.132;17.062;2024-01-30T05:38:07;0.10;1.00
18281;DHT22;9266;51.132;17.062;2024-01-30T05:40:33;0.10;1.00
18281;DHT22;9266;51.132;17.062;2024-01-30T05:43:01;0.00;1.00
18281;DHT22;9266;51.132;17.062;2024-01-30T05:45:28;0.10;1.00
18281;DHT22;9266;51.132;17.062;2024-01-30T05:47:56;0.10;1.00
18281;DHT22;9266;51.132;17.062;2024-01-30T05:50:23;0.00;1.00
18281;DHT22;9266;51.132;17.062;2024-01-30T05:52:51;-0.10;1.00
18281;DHT22;9266;51.132;17.062;2024-01-30T05:55:18;-0.10;1.00
18281;DHT22;9266;51.132;17.062;2024-01-30T05:57:45;-0.20;1.00
18281;DHT22;9266;51.132;17.062;2024-01-30T06:00:13;-0.10;99.90
18281;DHT22;9266;51.132;17.062;2024-01-30T06:02:40;0.00;99.90
18281;DHT22;9266;51.132;17.062;2024-01-30T06:05:09;-0.10;14.10
18281;DHT22;9266;51.132;17.062;2024-01-30T06:07:36;-0.20;1.00
18281;DHT22;9266;51.132;17.062;2024-01-30T06:10:03;-0.30;99.90
18281;DHT22;9266;51.132;17.062;2024-01-30T06:12:30;-0.40;1.00
18281;DHT22;9266;51.132;17.062;2024-01-30T06:14:57;-0.30;99.90
18281;DHT22;9266;51.132;17.062;2024-01-30T06:17:24;-0.10;99.90
18281;DHT22;9266;51.132;17.062;2024-01-30T06:19:51;-0.10;1.00
18281;DHT22;9266;51.132;17.062;2024-01-30T06:22:19;0.00;1.00
18281;DHT22;9266;51.132;17.062;2024-01-30T06:24:48;0.00;99.90
18281;DHT22;9266;51.132;17.062;2024-01-30T06:27:15;0.00;99.90
18281;DHT22;9266;51.132;17.062;2024-01-30T06:29:43;0.10;99.90
18281;DHT22;9266;51.132;17.062;2024-01-30T06:32:10;0.20;1.00
18281;DHT22;9266;51.132;17.062;2024-01-30T06:34:37;0.10;1.00
18281;DHT22;9266;51.132;17.062;2024-01-30T06:37:05;0.10;1.00
18281;DHT22;9266;51.132;17.062;2024-01-30T06:39:34;0.00;99.90
18281;DHT22;9266;51.132;17.062;2024-01-30T06:42:01;0.30;99.90
18281;DHT22;9266;51.132;17.062;2024-01-30T06:44:27;0.50;86.10
18281;DHT22;9266;51.132;17.062;2024-01-30T06:46:54;0.70;1.00
18281;DHT22;9266;51.132;17.062;2024-01-30T06:49:21;0.80;1.00
18281;DHT22;9266;51.132;17.062;2024-01-30T06:51:48;1.00;1.00
18281;DHT22;9266;51.132;17.062;2024-01-30T06:54:15;1.30;22.70
18281;DHT22;9266;51.132;17.062;2024-01-30T06:56:43;1.70;1.00
18281;DHT22;9266;51.132;17.062;2024-01-30T06:59:10;2.10;1.00
18281;DHT22;9266;51.132;17.062;2024-01-30T07:01:37;2.40;1.00
18281;DHT22;9266;51.132;17.062;2024-01-30T07:04:04;2.70;1.00
18281;DHT22;9266;51.132;17.062;2024-01-30T07:06:31;3.00;1.00
18281;DHT22;9266;51.132;17.062;2024-01-30T07:08:58;3.00;99.90
18281;DHT22;9266;51.132;17.062;2024-01-30T07:11:25;3.10;99.90
18281;DHT22;9266;51.132;17.062;2024-01-30T07:13:55;3.30;99.90
18281;DHT22;9266;51.132;17.062;2024-01-30T07:16:22;3.40;99.90
18281;DHT22;9266;51.132;17.062;2024-01-30T07:18:49;3.70;62.30
18281;DHT22;9266;51.132;17.062;2024-01-30T07:21:16;3.80;1.00
18281;DHT22;9266;51.132;17.062;2024-01-30T07:23:43;4.10;1.00
18281;DHT22;9266;51.132;17.062;2024-01-30T07:26:11;4.20;1.00
18281;DHT22;9266;51.132;17.062;2024-01-30T07:28:38;4.10;1.00
18281;DHT22;9266;51.132;17.062;2024-01-30T07:31:06;4.20;1.00
18281;DHT22;9266;51.132;17.062;2024-01-30T07:33:33;4.60;1.00
18281;DHT22;9266;51.132;17.062;2024-01-30T07:36:00;4.60;1.00
18281;DHT22;9266;51.132;17.062;2024-01-30T07:38:27;4.10;1.00
18281;DHT22;9266;51.132;17.062;2024-01-30T07:40:54;3.60;1.00
18281;DHT22;9266;51.132;17.062;2024-01-30T07:43:21;3.20;1.00
18281;DHT22;9266;51.132;17.062;2024-01-30T07:45:48;2.90;1.00
18281;DHT22;9266;51.132;17.062;2024-01-30T07:48:16;2.70;99.90
18281;DHT22;9266;51.132;17.062;2024-01-30T07:50:43;2.60;99.90
18281;DHT22;9266;51.132;17.062;2024-01-30T07:53:10;2.50;99.90
18281;DHT22;9266;51.132;17.062;2024-01-30T07:55:37;2.60;99.90
18281;DHT22;9266;51.132;17.062;2024-01-30T07:58:04;2.60;99.90
18281;DHT22;9266;51.132;17.062;2024-01-30T08:00:31;2.90;99.90
18281;DHT22;9266;51.132;17.062;2024-01-30T08:02:58;2.70;99.90
18281;DHT22;9266;51.132;17.062;2024-01-30T08:05:26;2.90;99.90
18281;DHT22;9266;51.132;17.062;2024-01-30T08:07:53;2.90;99.90
18281;DHT22;9266;51.132;17.062;2024-01-30T08:10:20;3.20;99.90
18281;DHT22;9266;51.132;17.062;2024-01-30T08:12:47;3.40;99.90
18281;DHT22;9266;51.132;17.062;2024-01-30T08:15:14;3.50;74.10
18281;DHT22;9266;51.132;17.062;2024-01-30T08:17:41;3.60;45.20
18281;DHT22;9266;51.132;17.062;2024-01-30T08:20:09;3.70;31.00
18281;DHT22;9266;51.132;17.062;2024-01-30T08:22:39;3.80;1.00
18281;DHT22;9266;51.132;17.062;2024-01-30T08:25:07;4.00;1.00
18281;DHT22;9266;51.132;17.062;2024-01-30T08:27:35;4.20;1.00
18281;DHT22;9266;51.132;17.062;2024-01-30T08:30:05;4.30;1.00
18281;DHT22;9266;51.132;17.062;2024-01-30T08:32:32;4.40;1.00
18281;DHT22;9266;51.132;17.062;2024-01-30T08:34:59;4.50;1.00
18281;DHT22;9266;51.132;17.062;2024-01-30T08:37:29;4.50;1.00
18281;DHT22;9266;51.132;17.062;2024-01-30T08:39:57;4.70;1.00
18281;DHT22;9266;51.132;17.062;2024-01-30T08:42:24;4.90;1.00
18281;DHT22;9266;51.132;17.062;2024-01-30T08:44:51;4.80;1.00
18281;DHT22;9266;51.132;17.062;2024-01-30T08:47:18;4.90;1.00
18281;DHT22;9266;51.132;17.062;2024-01-30T08:49:45;4.80;1.00
18281;DHT22;9266;51.132;17.062;2024-01-30T08:52:12;5.00;1.00
18281;DHT22;9266;51.132;17.062;2024-01-30T08:54:39;5.00;1.00
18281;DHT22;9266;51.132;17.062;2024-01-30T08:57:07;5.10;1.00
18281;DHT22;9266;51.132;17.062;2024-01-30T08:59:34;5.20;1.00
18281;DHT22;9266;51.132;17.062;2024-01-30T09:02:01;5.30;1.00
18281;DHT22;9266;51.132;17.062;2024-01-30T09:04:29;5.40;1.00
18281;DHT22;9266;51.132;17.062;2024-01-30T09:06:56;5.50;1.00
18281;DHT22;9266;51.132;17.062;2024-01-30T09:09:23;5.60;1.00
18281;DHT22;9266;51.132;17.062;2024-01-30T09:11:50;5.70;1.00
18281;DHT22;9266;51.132;17.062;2024-01-30T09:14:18;5.80;1.00
18281;DHT22;9266;51.132;17.062;2024-01-30T09:16:45;5.80;1.00
18281;DHT22;9266;51.132;17.062;2024-01-30T09:19:14;6.00;1.00
18281;DHT22;9266;51.132;17.062;2024-01-30T09:21:41;6.20;1.00
18281;DHT22;9266;51.132;17.062;2024-01-30T09:24:08;6.20;1.00
18281;DHT22;9266;51.132;17.062;2024-01-30T09:26:35;6.40;1.00
18281;DHT22;9266;51.132;17.062;2024-01-30T09:29:02;6.60;1.00
18281;DHT22;9266;51.132;17.062;2024-01-30T09:31:30;6.60;1.00
18281;DHT22;9266;51.132;17.062;2024-01-30T09:33:57;6.70;1.00
18281;DHT22;9266;51.132;17.062;2024-01-30T09:36:24;6.70;1.00
18281;DHT22;9266;51.132;17.062;2024-01-30T09:38:51;6.60;1.00
18281;DHT22;9266;51.132;17.062;2024-01-30T09:41:19;6.80;1.00
18281;DHT22;9266;51.132;17.062;2024-01-30T09:43:48;6.80;1.00
18281;DHT22;9266;51.132;17.062;2024-01-30T09:46:16;6.90;1.00
18281;DHT22;9266;51.132;17.062;2024-01-30T09:48:46;7.00;1.00
18281;DHT22;9266;51.132;17.062;2024-01-30T09:51:14;7.10;1.00
18281;DHT22;9266;51.132;17.062;2024-01-30T09:53:42;7.20;1.00
18281;DHT22;9266;51.132;17.062;2024-01-30T09:56:09;7.20;1.00
18281;DHT22;9266;51.132;17.062;2024-01-30T09:58:36;8.00;1.00
18281;DHT22;9266;51.132;17.062;2024-01-30T10:01:05;7.30;1.00
18281;DHT22;9266;51.132;17.062;2024-01-30T10:03:32;7.40;1.00
18281;DHT22;9266;51.132;17.062;2024-01-30T10:06:01;7.40;1.00
18281;DHT22;9266;51.132;17.062;2024-01-30T10:08:28;7.50;1.00
18281;DHT22;9266;51.132;17.062;2024-01-30T10:10:55;7.50;1.00
18281;DHT22;9266;51.132;17.062;2024-01-30T10:13:22;7.60;1.00
18281;DHT22;9266;51.132;17.062;2024-01-30T10:15:49;7.60;1.00
18281;DHT22;9266;51.132;17.062;2024-01-30T10:18:18;7.70;1.00
18281;DHT22;9266;51.132;17.062;2024-01-30T10:20:45;7.70;1.00
18281;DHT22;9266;51.132;17.062;2024-01-30T10:23:14;7.80;1.00
18281;DHT22;9266;51.132;17.062;2024-01-30T10:25:41;8.00;1.00
18281;DHT22;9266;51.132;17.062;2024-01-30T10:28:08;8.00;1.00
18281;DHT22;9266;51.132;17.062;2024-01-30T10:30:36;8.00;1.00
18281;DHT22;9266;51.132;17.062;2024-01-30T10:33:03;8.00;1.00
18281;DHT22;9266;51.132;17.062;2024-01-30T10:35:30;8.10;1.00
18281;DHT22;9266;51.132;17.062;2024-01-30T10:37:57;8.10;1.00
18281;DHT22;9266;51.132;17.062;2024-01-30T10:40:28;8.10;1.00
18281;DHT22;9266;51.132;17.062;2024-01-30T10:42:55;8.20;1.00
18281;DHT22;9266;51.132;17.062;2024-01-30T10:45:26;8.30;1.00
18281;DHT22;9266;51.132;17.062;2024-01-30T10:47:55;8.40;1.00
18281;DHT22;9266;51.132;17.062;2024-01-30T10:50:24;8.40;1.00
18281;DHT22;9266;51.132;17.062;2024-01-30T10:52:52;8.40;1.00
18281;DHT22;9266;51.132;17.062;2024-01-30T10:55:21;8.40;1.00
18281;DHT22;9266;51.132;17.062;2024-01-30T10:57:50;8.50;1.00
18281;DHT22;9266;51.132;17.062;2024-01-30T11:00:18;8.60;1.00
18281;DHT22;9266;51.132;17.062;2024-01-30T11:02:49;8.70;1.00
18281;DHT22;9266;51.132;17.062;2024-01-30T11:05:23;8.90;1.00
18281;DHT22;9266;51.132;17.062;2024-01-30T11:07:51;9.00;1.00
18281;DHT22;9266;51.132;17.062;2024-01-30T11:10:19;9.00;1.00
18281;DHT22;9266;51.132;17.062;2024-01-30T11:12:46;9.00;1.00
18281;DHT22;9266;51.132;17.062;2024-01-30T11:15:16;9.00;1.00
18281;DHT22;9266;51.132;17.062;2024-01-30T11:17:44;9.00;1.00
18281;DHT22;9266;51.132;17.062;2024-01-30T11:20:11;9.10;1.00
18281;DHT22;9266;51.132;17.062;2024-01-30T11:22:41;9.10;1.00
18281;DHT22;9266;51.132;17.062;2024-01-30T11:25:12;9.10;1.00
18281;DHT22;9266;51.132;17.062;2024-01-30T11:27:39;9.30;1.00
18281;DHT22;9266;51.132;17.062;2024-01-30T11:30:08;9.30;1.00
18281;DHT22;9266;51.132;17.062;2024-01-30T11:32:37;9.30;1.00
18281;DHT22;9266;51.132;17.062;2024-01-30T11:35:04;9.40;1.00
18281;DHT22;9266;51.132;17.062;2024-01-30T11:37:37;9.40;1.00
18281;DHT22;9266;51.132;17.062;2024-01-30T11:40:05;9.50;1.00
18281;DHT22;9266;51.132;17.062;2024-01-30T11:42:32;9.60;1.00
18281;DHT22;9266;51.132;17.062;2024-01-30T11:45:01;9.60;1.00
18281;DHT22;9266;51.132;17.062;2024-01-30T11:47:29;9.70;1.00
18281;DHT22;9266;51.132;17.062;2024-01-30T11:49:57;9.80;1.00
18281;DHT22;9266;51.132;17.062;2024-01-30T11:52:24;9.80;1.00
18281;DHT22;9266;51.132;17.062;2024-01-30T11:54:51;9.90;1.00
18281;DHT22;9266;51.132;17.062;2024-01-30T11:57:18;9.90;1.00
18281;DHT22;9266;51.132;17.062;2024-01-30T11:59:45;9.90;1.00
18281;DHT22;9266;51.132;17.062;2024-01-30T12:02:15;9.90;1.00
18281;DHT22;9266;51.132;17.062;2024-01-30T12:04:43;10.00;1.00
18281;DHT22;9266;51.132;17.062;2024-01-30T12:07:12;10.00;1.00
18281;DHT22;9266;51.132;17.062;2024-01-30T12:09:41;10.10;1.00
18281;DHT22;9266;51.132;17.062;2024-01-30T12:12:08;10.00;1.00
18281;DHT22;9266;51.132;17.062;2024-01-30T12:14:38;10.00;1.00
18281;DHT22;9266;51.132;17.062;2024-01-30T12:17:06;10.00;1.00
18281;DHT22;9266;51.132;17.062;2024-01-30T12:19:35;10.00;1.00
18281;DHT22;9266;51.132;17.062;2024-01-30T12:22:02;10.00;1.00
18281;DHT22;9266;51.132;17.062;2024-01-30T12:24:30;10.00;1.00
18281;DHT22;9266;51.132;17.062;2024-01-30T12:26:58;10.10;1.00
18281;DHT22;9266;51.132;17.062;2024-01-30T12:29:26;10.20;1.00
18281;DHT22;9266;51.132;17.062;2024-01-30T12:31:53;10.30;1.00
18281;DHT22;9266;51.132;17.062;2024-01-30T12:34:21;10.30;1.00
18281;DHT22;9266;51.132;17.062;2024-01-30T12:36:48;9.90;1.00
18281;DHT22;9266;51.132;17.062;2024-01-30T12:39:15;10.40;1.00
18281;DHT22;9266;51.132;17.062;2024-01-30T12:41:44;10.40;1.00
18281;DHT22;9266;51.132;17.062;2024-01-30T12:44:11;10.30;1.00
18281;DHT22;9266;51.132;17.062;2024-01-30T12:46:40;10.30;1.00
18281;DHT22;9266;51.132;17.062;2024-01-30T12:49:06;10.20;1.00
18281;DHT22;9266;51.132;17.062;2024-01-30T12:51:34;10.20;1.00
18281;DHT22;9266;51.132;17.062;2024-01-30T12:54:05;10.20;1.00
18281;DHT22;9266;51.132;17.062;2024-01-30T12:56:32;10.10;1.00
18281;DHT22;9266;51.132;17.062;2024-01-30T12:59:01;10.00;1.00
18281;DHT22;9266;51.132;17.062;2024-01-30T13:01:28;9.40;1.00
18281;DHT22;9266;51.132;17.062;2024-01-30T13:03:55;9.80;1.00
18281;DHT22;9266;51.132;17.062;2024-01-30T13:06:24;9.80;1.00
18281;DHT22;9266;51.132;17.062;2024-01-30T13:08:50;9.70;1.00
18281;DHT22;9266;51.132;17.062;2024-01-30T13:11:17;9.60;1.00
18281;DHT22;9266;51.132;17.062;2024-01-30T13:13:44;9.60;1.00
18281;DHT22;9266;51.132;17.062;2024-01-30T13:16:13;9.50;1.00
18281;DHT22;9266;51.132;17.062;2024-01-30T13:18:40;9.50;1.00
18281;DHT22;9266;51.132;17.062;2024-01-30T13:21:07;9.40;1.00
18281;DHT22;9266;51.132;17.062;2024-01-30T13:23:34;9.40;1.00
18281;DHT22;9266;51.132;17.062;2024-01-30T13:26:01;9.30;1.00
18281;DHT22;9266;51.132;17.062;2024-01-30T13:28:28;9.20;1.00
18281;DHT22;9266;51.132;17.062;2024-01-30T13:30:55;9.10;1.00
18281;DHT22;9266;51.132;17.062;2024-01-30T13:33:23;9.10;1.00
18281;DHT22;9266;51.132;17.062;2024-01-30T13:35:50;9.00;1.00
18281;DHT22;9266;51.132;17.062;2024-01-30T13:38:17;9.00;1.00
18281;DHT22;9266;51.132;17.062;2024-01-30T13:40:44;9.90;1.00
18281;DHT22;9266;51.132;17.062;2024-01-30T13:43:11;8.90;1.00
18281;DHT22;9266;51.132;17.062;2024-01-30T13:45:38;8.90;1.00
18281;DHT22;9266;51.132;17.062;2024-01-30T13:48:06;8.90;1.00
18281;DHT22;9266;51.132;17.062;2024-01-30T13:50:34;8.90;1.00
18281;DHT22;9266;51.132;17.062;2024-01-30T13:53:03;9.00;1.00
18281;DHT22;9266;51.132;17.062;2024-01-30T13:55:30;9.00;1.00
18281;DHT22;9266;51.132;17.062;2024-01-30T13:57:57;9.00;1.00
18281;DHT22;9266;51.132;17.062;2024-01-30T14:00:25;8.90;1.00
18281;DHT22;9266;51.132;17.062;2024-01-30T14:02:52;9.00;1.00
18281;DHT22;9266;51.132;17.062;2024-01-30T14:05:20;8.90;1.00
18281;DHT22;9266;51.132;17.062;2024-01-30T14:07:49;8.90;1.00
18281;DHT22;9266;51.132;17.062;2024-01-30T14:10:16;8.80;1.00
18281;DHT22;9266;51.132;17.062;2024-01-30T14:12:44;8.80;1.00
18281;DHT22;9266;51.132;17.062;2024-01-30T14:15:11;8.80;1.00
18281;DHT22;9266;51.132;17.062;2024-01-30T14:17:40;8.80;1.00
18281;DHT22;9266;51.132;17.062;2024-01-30T14:20:08;8.80;1.00
18281;DHT22;9266;51.132;17.062;2024-01-30T14:22:36;8.70;1.00
18281;DHT22;9266;51.132;17.062;2024-01-30T14:25:06;8.70;1.00
18281;DHT22;9266;51.132;17.062;2024-01-30T14:27:34;8.70;1.00
18281;DHT22;9266;51.132;17.062;2024-01-30T14:30:01;8.60;1.00
18281;DHT22;9266;51.132;17.062;2024-01-30T14:32:29;7.00;1.00
18281;DHT22;9266;51.132;17.062;2024-01-30T14:34:55;8.40;1.00
18281;DHT22;9266;51.132;17.062;2024-01-30T14:37:22;8.30;1.00
18281;DHT22;9266;51.132;17.062;2024-01-30T14:39:49;8.30;1.00
18281;DHT22;9266;51.132;17.062;2024-01-30T14:42:18;8.30;1.00
18281;DHT22;9266;51.132;17.062;2024-01-30T14:44:45;8.30;1.00
18281;DHT22;9266;51.132;17.062;2024-01-30T14:47:12;8.30;1.00
18281;DHT22;9266;51.132;17.062;2024-01-30T14:49:40;8.30;1.00
18281;DHT22;9266;51.132;17.062;2024-01-30T14:52:07;8.20;1.00
18281;DHT22;9266;51.132;17.062;2024-01-30T14:54:36;8.20;1.00
18281;DHT22;9266;51.132;17.062;2024-01-30T14:57:04;8.20;1.00
18281;DHT22;9266;51.132;17.062;2024-01-30T14:59:32;8.10;1.00
18281;DHT22;9266;51.132;17.062;2024-01-30T15:02:00;8.00;1.00
18281;DHT22;9266;51.132;17.062;2024-01-30T15:04:27;7.90;1.00
18281;DHT22;9266;51.132;17.062;2024-01-30T15:06:54;7.80;1.00
18281;DHT22;9266;51.132;17.062;2024-01-30T15:09:21;7.70;1.00
18281;DHT22;9266;51.132;17.062;2024-01-30T15:11:48;7.50;1.00
18281;DHT22;9266;51.132;17.062;2024-01-30T15:14:15;7.50;1.00
18281;DHT22;9266;51.132;17.062;2024-01-30T15:16:44;7.50;1.00
18281;DHT22;9266;51.132;17.062;2024-01-30T15:19:11;7.50;1.00
18281;DHT22;9266;51.132;17.062;2024-01-30T15:21:38;7.50;1.00
18281;DHT22;9266;51.132;17.062;2024-01-30T15:24:05;7.40;1.00
18281;DHT22;9266;51.132;17.062;2024-01-30T15:26:32;7.40;1.00
18281;DHT22;9266;51.132;17.062;2024-01-30T15:28:59;7.30;1.00
18281;DHT22;9266;51.132;17.062;2024-01-30T15:31:26;7.20;1.00
18281;DHT22;9266;51.132;17.062;2024-01-30T15:33:55;7.10;1.00
18281;DHT22;9266;51.132;17.062;2024-01-30T15:36:23;7.10;1.00
18281;DHT22;9266;51.132;17.062;2024-01-30T15:38:49;7.00;1.00
18281;DHT22;9266;51.132;17.062;2024-01-30T15:41:16;6.90;1.00
18281;DHT22;9266;51.132;17.062;2024-01-30T15:43:43;6.80;1.00
18281;DHT22;9266;51.132;17.062;2024-01-30T15:46:11;6.60;1.00
18281;DHT22;9266;51.132;17.062;2024-01-30T15:48:37;6.50;1.00
18281;DHT22;9266;51.132;17.062;2024-01-30T15:51:06;6.40;1.00
18281;DHT22;9266;51.132;17.062;2024-01-30T15:53:33;6.40;1.00
18281;DHT22;9266;51.132;17.062;2024-01-30T15:56:00;6.50;1.00
18281;DHT22;9266;51.132;17.062;2024-01-30T15:58:27;6.40;1.00